Time,TemperatureF,DewpointF,PressureIn,WindDirection,WindDirectionDegrees,WindSpeedMPH,WindSpeedGustMPH,Humidity,HourlyPrecipIn,Conditions,Clouds,dailyrainin,SoftwareType,DateUTC
2013-03-04 00:04:00,28.9,27.2,30.34,West,270,0.0,0.0,93,0.00,,,0.16,WUHU21623XXSP,2013-03-04 08:04:00,
2013-03-04 00:10:00,28.9,27.2,30.33,West,270,0.0,0.0,93,0.00,,,0.00,WUHU21623XXSP,2013-03-04 08:10:00,
2013-03-04 00:15:00,28.8,27.0,30.33,West,270,0.0,0.0,93,0.00,,,0.00,WUHU21623XXSP,2013-03-04 08:15:00,
2013-03-04 00:23:00,28.8,27.0,30.33,West,270,0.0,0.0,93,0.00,,,0.00,WUHU21623XXSP,2013-03-04 08:23:00,
2013-03-04 00:30:00,28.6,26.8,30.34,West,270,0.0,0.0,93,0.00,,,0.00,WUHU21623XXSP,2013-03-04 08:30:00,
2013-03-04 00:35:00,28.6,26.8,30.33,West,270,0.0,0.0,93,0.00,,,0.00,WUHU21623XXSP,2013-03-04 08:35:00,
2013-03-04 00:42:00,28.6,26.8,30.33,West,270,0.0,0.0,93,0.00,,,0.00,WUHU21623XXSP,2013-03-04 08:42:00,
2013-03-04 00:47:00,28.4,26.4,30.34,West,270,0.0,0.0,92,0.00,,,0.00,WUHU21623XXSP,2013-03-04 08:47:00,
2013-03-04 00:53:00,28.2,26.2,30.33,West,270,0.0,0.0,92,0.00,,,0.00,WUHU21623XXSP,2013-03-04 08:53:00,
2013-03-04 01:00:00,28.2,26.5,30.33,West,270,0.0,0.0,92,0.00,,,0.00,WUHU21623XXSP,2013-03-04 09:00:00,
2013-03-04 01:05:00,28.2,26.5,30.33,West,270,0.0,0.0,92,0.00,,,0.00,WUHU21623XXSP,2013-03-04 09:05:00,
2013-03-04 01:10:00,28.0,26.3,30.33,West,270,0.0,0.0,93,0.00,,,0.00,WUHU21623XXSP,2013-03-04 09:10:00,
2013-03-04 01:17:00,28.0,26.3,30.34,West,270,0.0,0.0,93,0.00,,,0.00,WUHU21623XXSP,2013-03-04 09:17:00,
2013-03-04 01:22:00,28.0,26.3,30.32,West,270,0.0,0.0,93,0.00,,,0.00,WUHU21623XXSP,2013-03-04 09:22:00,
2013-03-04 01:28:00,28.0,26.3,30.33,West,270,0.0,0.0,93,0.00,,,0.00,WUHU21623XXSP,2013-03-04 09:28:00,
2013-03-04 01:34:00,28.0,26.3,30.32,West,270,0.0,0.0,93,0.00,,,0.00,WUHU21623XXSP,2013-03-04 09:34:00,
2013-03-04 01:39:00,27.7,25.9,30.33,West,270,0.0,0.0,93,0.00,,,0.00,WUHU21623XXSP,2013-03-04 09:39:00,
2013-03-04 01:44:00,27.7,25.9,30.32,West,270,0.0,0.0,93,0.00,,,0.00,WUHU21623XXSP,2013-03-04 09:44:00,
2013-03-04 01:52:00,27.7,25.9,30.32,West,270,0.0,0.0,93,0.00,,,0.00,WUHU21623XXSP,2013-03-04 09:52:00,
2013-03-04 01:57:00,27.7,25.9,30.32,West,270,0.0,0.0,93,0.00,,,0.00,WUHU21623XXSP,2013-03-04 09:57:00,
2013-03-04 02:03:00,27.7,25.9,30.32,West,270,0.0,0.0,93,0.00,,,0.00,WUHU21623XXSP,2013-03-04 10:03:00,
2013-03-04 02:10:00,27.3,25.6,30.32,West,270,0.0,0.0,93,0.00,,,0.00,WUHU21623XXSP,2013-03-04 10:10:00,
2013-03-04 02:18:00,27.3,25.6,30.32,West,270,0.0,0.0,93,0.00,,,0.00,WUHU21623XXSP,2013-03-04 10:18:00,
2013-03-04 02:23:00,27.1,25.4,30.32,West,270,0.0,0.0,93,0.00,,,0.00,WUHU21623XXSP,2013-03-04 10:23:00,
2013-03-04 02:30:00,27.1,25.4,30.32,West,270,0.0,0.0,93,0.00,,,0.00,WUHU21623XXSP,2013-03-04 10:30:00,
2013-03-04 02:36:00,27.1,25.4,30.33,West,270,0.0,0.0,93,0.00,,,0.00,WUHU21623XXSP,2013-03-04 10:36:00,
2013-03-04 02:44:00,27.1,25.4,30.32,West,270,0.0,0.0,93,0.00,,,0.00,WUHU21623XXSP,2013-03-04 10:44:00,
2013-03-04 02:51:00,27.1,25.4,30.33,West,270,0.0,0.0,93,0.00,,,0.00,WUHU21623XXSP,2013-03-04 10:51:00,
2013-03-04 02:58:00,27.1,25.4,30.32,West,270,0.0,0.0,93,0.00,,,0.00,WUHU21623XXSP,2013-03-04 10:58:00,
2013-03-04 03:03:00,27.1,25.4,30.32,West,270,0.0,0.0,93,0.00,,,0.00,WUHU21623XXSP,2013-03-04 11:03:00,
2013-03-04 03:10:00,27.1,25.4,30.32,West,270,0.0,0.0,93,0.00,,,0.00,WUHU21623XXSP,2013-03-04 11:10:00,
2013-03-04 03:16:00,27.0,25.2,30.32,West,270,0.0,0.0,93,0.00,,,0.00,WUHU21623XXSP,2013-03-04 11:16:00,
2013-03-04 03:22:00,27.1,25.4,30.32,West,270,0.0,0.0,93,0.00,,,0.00,WUHU21623XXSP,2013-03-04 11:22:00,
2013-03-04 03:30:00,27.0,25.2,30.32,West,270,0.0,0.0,93,0.00,,,0.00,WUHU21623XXSP,2013-03-04 11:30:00,
2013-03-04 03:35:00,26.8,25.0,30.32,West,270,0.0,0.0,93,0.00,,,0.00,WUHU21623XXSP,2013-03-04 11:35:00,
2013-03-04 03:40:00,26.6,24.8,30.32,West,270,0.0,0.0,93,0.00,,,0.00,WUHU21623XXSP,2013-03-04 11:40:00,
2013-03-04 03:45:00,26.4,24.7,30.31,West,270,0.0,0.0,93,0.00,,,0.00,WUHU21623XXSP,2013-03-04 11:45:00,
2013-03-04 03:50:00,26.4,24.7,30.31,West,270,0.0,0.0,93,0.00,,,0.00,WUHU21623XXSP,2013-03-04 11:50:00,
2013-03-04 03:55:00,26.6,24.8,30.32,West,270,0.0,0.0,93,0.00,,,0.00,WUHU21623XXSP,2013-03-04 11:55:00,
2013-03-04 04:03:00,26.4,24.7,30.32,West,270,0.0,0.0,93,0.00,,,0.00,WUHU21623XXSP,2013-03-04 12:03:00,
2013-03-04 04:08:00,26.2,24.5,30.31,West,270,0.0,0.0,93,0.00,,,0.00,WUHU21623XXSP,2013-03-04 12:08:00,
2013-03-04 04:13:00,26.2,24.5,30.31,West,270,0.0,0.0,93,0.00,,,0.00,WUHU21623XXSP,2013-03-04 12:13:00,
2013-03-04 04:20:00,26.2,24.5,30.32,West,270,0.0,0.0,93,0.00,,,0.00,WUHU21623XXSP,2013-03-04 12:20:00,
2013-03-04 04:27:00,26.2,24.5,30.31,West,270,0.0,0.0,93,0.00,,,0.00,WUHU21623XXSP,2013-03-04 12:27:00,
2013-03-04 04:32:00,26.1,24.3,30.31,West,270,0.0,0.0,93,0.00,,,0.00,WUHU21623XXSP,2013-03-04 12:32:00,
2013-03-04 04:40:00,26.1,24.3,30.30,West,270,0.0,0.0,93,0.00,,,0.00,WUHU21623XXSP,2013-03-04 12:40:00,
2013-03-04 04:46:00,26.1,24.3,30.30,West,270,0.0,0.0,93,0.00,,,0.00,WUHU21623XXSP,2013-03-04 12:46:00,
2013-03-04 04:53:00,25.9,24.1,30.30,West,270,0.0,0.0,93,0.00,,,0.00,WUHU21623XXSP,2013-03-04 12:53:00,
2013-03-04 04:56:00,25.9,24.1,30.30,West,270,0.0,0.0,93,0.00,,,0.00,WUHU21623XXSP,2013-03-04 12:56:00,
2013-03-04 05:02:00,25.9,24.1,30.30,West,270,0.0,0.0,93,0.00,,,0.00,WUHU21623XXSP,2013-03-04 13:02:00,
2013-03-04 05:14:00,25.7,23.9,30.30,West,270,0.0,0.0,93,0.00,,,0.00,WUHU21623XXSP,2013-03-04 13:14:00,
2013-03-04 05:21:00,25.9,24.1,30.30,West,270,0.0,0.0,93,0.00,,,0.00,WUHU21623XXSP,2013-03-04 13:21:00,
2013-03-04 05:27:00,25.9,24.1,30.30,West,270,0.0,0.0,93,0.00,,,0.00,WUHU21623XXSP,2013-03-04 13:27:00,
2013-03-04 05:37:00,25.9,24.1,30.30,West,270,0.0,0.0,93,0.00,,,0.00,WUHU21623XXSP,2013-03-04 13:37:00,
2013-03-04 05:46:00,25.7,23.9,30.30,West,270,0.0,0.0,93,0.00,,,0.00,WUHU21623XXSP,2013-03-04 13:46:00,
2013-03-04 05:53:00,25.7,23.9,30.30,West,270,0.0,0.0,93,0.00,,,0.00,WUHU21623XXSP,2013-03-04 13:53:00,
2013-03-04 06:01:00,25.5,23.8,30.30,West,270,0.0,0.0,93,0.00,,,0.00,WUHU21623XXSP,2013-03-04 14:01:00,
2013-03-04 06:13:00,25.3,23.6,30.30,West,270,0.0,0.0,93,0.00,,,0.00,WUHU21623XXSP,2013-03-04 14:13:00,
2013-03-04 06:18:00,25.3,23.6,30.30,West,270,0.0,0.0,93,0.00,,,0.00,WUHU21623XXSP,2013-03-04 14:18:00,
2013-03-04 06:23:00,25.2,23.4,30.30,West,270,0.0,0.0,93,0.00,,,0.00,WUHU21623XXSP,2013-03-04 14:23:00,
2013-03-04 06:29:00,25.2,23.4,30.30,West,270,0.0,0.0,93,0.00,,,0.00,WUHU21623XXSP,2013-03-04 14:29:00,
2013-03-04 06:37:00,25.0,23.2,30.29,West,270,0.0,0.0,93,0.00,,,0.00,WUHU21623XXSP,2013-03-04 14:37:00,
2013-03-04 06:42:00,25.0,23.2,30.29,West,270,0.0,0.0,93,0.00,,,0.00,WUHU21623XXSP,2013-03-04 14:42:00,
2013-03-04 06:47:00,25.0,23.2,30.29,West,270,0.0,0.0,93,0.00,,,0.00,WUHU21623XXSP,2013-03-04 14:47:00,
2013-03-04 06:52:00,25.0,23.2,30.29,West,270,0.0,0.0,93,0.00,,,0.00,WUHU21623XXSP,2013-03-04 14:52:00,
2013-03-04 06:59:00,25.0,23.2,30.29,West,270,0.0,0.0,93,0.00,,,0.00,WUHU21623XXSP,2013-03-04 14:59:00,
2013-03-04 07:05:00,25.0,23.2,30.29,West,270,0.0,0.0,93,0.00,,,0.00,WUHU21623XXSP,2013-03-04 15:05:00,
2013-03-04 07:12:00,25.0,23.2,30.27,West,270,0.0,0.0,93,0.00,,,0.00,WUHU21623XXSP,2013-03-04 15:12:00,
2013-03-04 07:22:00,25.2,23.4,30.27,West,270,0.0,0.0,93,0.00,,,0.00,WUHU21623XXSP,2013-03-04 15:22:00,
2013-03-04 07:28:00,25.3,23.6,30.27,West,270,0.0,0.0,93,0.00,,,0.00,WUHU21623XXSP,2013-03-04 15:28:00,
2013-03-04 07:36:00,25.3,23.6,30.28,West,270,0.0,0.0,93,0.00,,,0.00,WUHU21623XXSP,2013-03-04 15:36:00,
2013-03-04 07:41:00,25.7,23.9,30.28,West,270,0.0,0.0,93,0.00,,,0.00,WUHU21623XXSP,2013-03-04 15:41:00,
2013-03-04 07:46:00,25.9,24.1,30.28,WSW,247,0.0,0.0,93,0.00,,,0.00,WUHU21623XXSP,2013-03-04 15:46:00,
2013-03-04 07:51:00,26.2,24.5,30.28,WSW,247,0.0,0.0,93,0.00,,,0.00,WUHU21623XXSP,2013-03-04 15:51:00,
2013-03-04 07:59:00,26.6,24.8,30.27,WSW,247,0.0,0.0,93,0.00,,,0.00,WUHU21623XXSP,2013-03-04 15:59:00,
2013-03-04 08:04:00,27.5,26.0,30.27,WSW,247,0.0,0.0,94,0.00,,,0.00,WUHU21623XXSP,2013-03-04 16:04:00,
2013-03-04 08:13:00,27.7,26.2,30.28,WSW,247,0.0,0.0,94,0.00,,,0.00,WUHU21623XXSP,2013-03-04 16:13:00,
2013-03-04 08:19:00,28.6,27.1,30.27,WSW,247,0.0,0.0,94,0.00,,,0.00,WUHU21623XXSP,2013-03-04 16:19:00,
2013-03-04 08:25:00,29.1,27.6,30.27,WSW,247,0.0,0.0,94,0.00,,,0.00,WUHU21623XXSP,2013-03-04 16:25:00,
2013-03-04 08:32:00,30.4,28.9,30.27,WSW,247,0.0,0.0,94,0.00,,,0.00,WUHU21623XXSP,2013-03-04 16:32:00,
2013-03-04 08:38:00,30.4,28.9,30.27,WSW,247,0.0,0.0,94,0.00,,,0.00,WUHU21623XXSP,2013-03-04 16:38:00,
2013-03-04 08:43:00,32.7,31.2,30.27,WSW,247,0.0,0.0,94,0.00,,,0.00,WUHU21623XXSP,2013-03-04 16:43:00,
2013-03-04 08:48:00,33.4,32.1,30.27,WSW,247,0.0,0.0,95,0.00,,,0.00,WUHU21623XXSP,2013-03-04 16:48:00,
2013-03-04 08:53:00,34.2,32.8,30.26,WSW,247,0.0,0.0,95,0.00,,,0.00,WUHU21623XXSP,2013-03-04 16:53:00,
2013-03-04 08:58:00,34.3,33.0,30.26,WSW,247,0.0,0.0,95,0.00,,,0.00,WUHU21623XXSP,2013-03-04 16:58:00,
2013-03-04 09:03:00,35.2,33.9,30.26,WSW,247,0.0,0.0,95,0.00,,,0.00,WUHU21623XXSP,2013-03-04 17:03:00,
2013-03-04 09:08:00,35.8,34.4,30.27,WSW,247,0.0,0.0,95,0.00,,,0.00,WUHU21623XXSP,2013-03-04 17:08:00,
2013-03-04 09:16:00,36.0,34.6,30.26,WSW,247,0.0,0.0,95,0.00,,,0.00,WUHU21623XXSP,2013-03-04 17:16:00,
2013-03-04 09:24:00,37.6,36.2,30.26,SW,225,0.0,0.0,95,0.00,,,0.00,WUHU21623XXSP,2013-03-04 17:24:00,
2013-03-04 09:32:00,38.5,37.1,30.25,SSW,202,0.0,0.0,95,0.00,,,0.00,WUHU21623XXSP,2013-03-04 17:32:00,
2013-03-04 09:38:00,39.0,37.7,30.25,SSW,202,0.0,0.0,95,0.00,,,0.00,WUHU21623XXSP,2013-03-04 17:38:00,
2013-03-04 09:44:00,40.1,38.8,30.24,SSW,202,0.0,0.0,95,0.00,,,0.00,WUHU21623XXSP,2013-03-04 17:44:00,
2013-03-04 09:49:00,41.5,40.2,30.25,WSW,247,0.0,0.0,95,0.00,,,0.00,WUHU21623XXSP,2013-03-04 17:49:00,
2013-03-04 09:57:00,41.9,40.5,30.24,North,0,0.0,0.0,95,0.00,,,0.00,WUHU21623XXSP,2013-03-04 17:57:00,
2013-03-04 10:02:00,41.5,40.2,30.24,North,0,0.0,0.0,95,0.00,,,0.00,WUHU21623XXSP,2013-03-04 18:02:00,
2013-03-04 10:07:00,41.9,40.3,30.24,North,0,0.0,0.0,94,0.00,,,0.00,WUHU21623XXSP,2013-03-04 18:07:00,
2013-03-04 10:13:00,42.1,40.2,30.24,North,0,0.0,0.0,93,0.00,,,0.00,WUHU21623XXSP,2013-03-04 18:13:00,
2013-03-04 10:23:00,42.4,40.0,30.23,NW,315,0.0,0.0,91,0.00,,,0.00,WUHU21623XXSP,2013-03-04 18:23:00,
2013-03-04 10:35:00,42.6,39.6,30.23,NW,315,0.0,0.0,89,0.00,,,0.00,WUHU21623XXSP,2013-03-04 18:35:00,
2013-03-04 10:40:00,44.4,40.5,30.23,NW,315,0.0,0.0,86,0.00,,,0.00,WUHU21623XXSP,2013-03-04 18:40:00,
2013-03-04 10:48:00,45.7,41.8,30.23,NE,45,0.0,0.0,86,0.00,,,0.00,WUHU21623XXSP,2013-03-04 18:48:00,
2013-03-04 10:56:00,45.7,40.2,30.22,NE,45,0.0,0.0,81,0.00,,,0.00,WUHU21623XXSP,2013-03-04 18:56:00,
2013-03-04 11:05:00,45.3,39.2,30.22,NE,45,0.0,0.0,79,0.00,,,0.00,WUHU21623XXSP,2013-03-04 19:05:00,
2013-03-04 11:10:00,46.2,40.1,30.21,NW,315,0.0,0.0,79,0.00,,,0.00,WUHU21623XXSP,2013-03-04 19:10:00,
2013-03-04 11:18:00,46.9,40.4,30.22,NW,315,0.0,0.0,78,0.00,,,0.00,WUHU21623XXSP,2013-03-04 19:18:00,
2013-03-04 11:25:00,48.4,41.1,30.21,WNW,292,0.0,0.0,76,0.00,,,0.00,WUHU21623XXSP,2013-03-04 19:25:00,
2013-03-04 11:30:00,49.8,42.2,30.20,WSW,247,0.0,0.0,75,0.00,,,0.00,WUHU21623XXSP,2013-03-04 19:30:00,
2013-03-04 11:35:00,50.9,42.6,30.20,NW,315,0.0,0.0,73,0.00,,,0.00,WUHU21623XXSP,2013-03-04 19:35:00,
2013-03-04 11:40:00,51.6,42.3,30.20,WNW,292,0.0,0.0,70,0.00,,,0.00,WUHU21623XXSP,2013-03-04 19:40:00,
2013-03-04 11:49:00,52.0,41.4,30.20,NNW,337,0.0,0.0,67,0.00,,,0.00,WUHU21623XXSP,2013-03-04 19:49:00,
2013-03-04 11:54:00,52.3,40.9,30.19,NW,315,0.0,0.0,65,0.00,,,0.00,WUHU21623XXSP,2013-03-04 19:54:00,
2013-03-04 12:01:00,52.5,41.1,30.19,WNW,292,0.0,0.0,65,0.00,,,0.00,WUHU21623XXSP,2013-03-04 20:01:00,
2013-03-04 12:06:00,53.8,41.5,30.18,NNW,337,0.0,0.0,63,0.00,,,0.00,WUHU21623XXSP,2013-03-04 20:06:00,
2013-03-04 12:14:00,54.0,41.2,30.18,NW,315,0.0,0.0,62,0.00,,,0.00,WUHU21623XXSP,2013-03-04 20:14:00,
2013-03-04 12:19:00,54.3,41.1,30.18,WNW,292,0.0,0.0,61,0.00,,,0.00,WUHU21623XXSP,2013-03-04 20:19:00,
2013-03-04 12:27:00,54.3,39.8,30.17,NNW,337,0.0,0.0,58,0.00,,,0.00,WUHU21623XXSP,2013-03-04 20:27:00,
2013-03-04 12:33:00,54.3,39.3,30.17,NW,315,0.0,0.0,57,0.00,,,0.00,WUHU21623XXSP,2013-03-04 20:33:00,
2013-03-04 12:41:00,54.9,38.9,30.16,NW,315,0.0,0.0,55,0.00,,,0.00,WUHU21623XXSP,2013-03-04 20:41:00,
2013-03-04 12:49:00,56.1,39.6,30.15,NW,315,0.0,0.0,54,0.00,,,0.00,WUHU21623XXSP,2013-03-04 20:49:00,
2013-03-04 12:57:00,56.3,38.4,30.15,WNW,292,0.0,0.0,51,0.00,,,0.00,WUHU21623XXSP,2013-03-04 20:57:00,
2013-03-04 13:02:00,56.3,38.9,30.15,NW,315,0.0,0.0,52,0.00,,,0.00,WUHU21623XXSP,2013-03-04 21:02:00,
2013-03-04 13:10:00,56.8,38.9,30.14,SSW,202,0.0,0.0,51,0.00,,,0.00,WUHU21623XXSP,2013-03-04 21:10:00,
2013-03-04 13:17:00,57.6,40.1,30.14,South,180,0.0,0.0,52,0.00,,,0.00,WUHU21623XXSP,2013-03-04 21:17:00,
2013-03-04 13:24:00,58.8,39.1,30.14,NW,315,0.0,0.0,48,0.00,,,0.00,WUHU21623XXSP,2013-03-04 21:24:00,
2013-03-04 13:30:00,58.8,39.7,30.13,SSE,157,0.0,0.0,49,0.00,,,0.00,WUHU21623XXSP,2013-03-04 21:30:00,
2013-03-04 13:35:00,59.5,39.2,30.13,South,180,0.0,0.0,47,0.00,,,0.00,WUHU21623XXSP,2013-03-04 21:35:00,
2013-03-04 13:40:00,59.7,40.0,30.13,South,180,0.0,0.0,48,0.00,,,0.00,WUHU21623XXSP,2013-03-04 21:40:00,
2013-03-04 13:45:00,60.1,39.7,30.12,South,180,0.0,0.0,47,0.00,,,0.00,WUHU21623XXSP,2013-03-04 21:45:00,
2013-03-04 13:53:00,60.4,40.0,30.12,South,180,0.0,0.0,47,0.00,,,0.00,WUHU21623XXSP,2013-03-04 21:53:00,
2013-03-04 13:58:00,60.4,39.5,30.11,SE,135,0.0,0.0,46,0.00,,,0.00,WUHU21623XXSP,2013-03-04 21:58:00,
2013-03-04 14:05:00,60.1,38.6,30.11,SSW,202,0.0,0.0,45,0.00,,,0.00,WUHU21623XXSP,2013-03-04 22:05:00,
2013-03-04 14:10:00,60.1,38.6,30.11,West,270,0.0,0.0,45,0.00,,,0.00,WUHU21623XXSP,2013-03-04 22:10:00,
2013-03-04 14:19:00,60.1,38.6,30.10,West,270,0.0,0.0,45,0.00,,,0.00,WUHU21623XXSP,2013-03-04 22:19:00,
2013-03-04 14:24:00,60.4,38.3,30.10,SSE,157,0.0,0.0,44,0.00,,,0.00,WUHU21623XXSP,2013-03-04 22:24:00,
2013-03-04 14:29:00,60.4,37.1,30.10,SSE,157,0.0,0.0,42,0.00,,,0.00,WUHU21623XXSP,2013-03-04 22:29:00,
2013-03-04 14:37:00,60.1,36.2,30.10,SSE,157,0.0,0.0,41,0.00,,,0.00,WUHU21623XXSP,2013-03-04 22:37:00,
2013-03-04 14:44:00,59.9,36.1,30.10,ESE,112,0.0,0.0,41,0.00,,,0.00,WUHU21623XXSP,2013-03-04 22:44:00,
2013-03-04 14:49:00,59.2,34.9,30.09,South,180,0.0,0.0,40,0.00,,,0.00,WUHU21623XXSP,2013-03-04 22:49:00,
2013-03-04 14:54:00,58.8,33.8,30.09,SE,135,0.0,0.0,39,0.00,,,0.00,WUHU21623XXSP,2013-03-04 22:54:00,
2013-03-04 15:01:00,58.6,33.7,30.09,SE,135,0.0,0.0,39,0.00,,,0.00,WUHU21623XXSP,2013-03-04 23:01:00,
2013-03-04 15:06:00,58.3,34.1,30.09,SSE,157,0.0,0.0,40,0.00,,,0.00,WUHU21623XXSP,2013-03-04 23:06:00,
2013-03-04 15:11:00,58.5,34.2,30.09,SSE,157,0.0,0.0,40,0.00,,,0.00,WUHU21623XXSP,2013-03-04 23:11:00,
2013-03-04 15:16:00,58.8,35.1,30.08,SSE,157,0.0,0.0,41,0.00,,,0.00,WUHU21623XXSP,2013-03-04 23:16:00,
2013-03-04 15:22:00,58.8,33.8,30.08,East,90,0.0,0.0,39,0.00,,,0.00,WUHU21623XXSP,2013-03-04 23:22:00,
2013-03-04 15:29:00,58.3,34.6,30.08,SE,135,0.0,0.0,41,0.00,,,0.00,WUHU21623XXSP,2013-03-04 23:29:00,
2013-03-04 15:35:00,58.1,33.9,30.08,ESE,112,0.0,0.0,40,0.00,,,0.00,WUHU21623XXSP,2013-03-04 23:35:00,
2013-03-04 15:46:00,57.2,33.1,30.07,SE,135,0.0,0.0,40,0.00,,,0.00,WUHU21623XXSP,2013-03-04 23:46:00,
2013-03-04 15:51:00,56.8,32.8,30.07,East,90,0.0,0.0,40,0.00,,,0.00,WUHU21623XXSP,2013-03-04 23:51:00,
2013-03-04 15:56:00,56.5,32.4,30.06,South,180,0.0,0.0,40,0.00,,,0.00,WUHU21623XXSP,2013-03-04 23:56:00,
2013-03-04 16:04:00,56.1,32.1,30.06,South,180,0.0,0.0,40,0.00,,,0.00,WUHU21623XXSP,2013-03-05 00:04:00,
2013-03-04 16:12:00,55.9,31.9,30.06,SSE,157,0.0,0.0,40,0.00,,,0.00,WUHU21623XXSP,2013-03-05 00:12:00,
2013-03-04 16:20:00,55.4,31.5,30.05,ESE,112,0.0,0.0,40,0.00,,,0.00,WUHU21623XXSP,2013-03-05 00:20:00,
2013-03-04 16:26:00,54.9,31.0,30.05,SSE,157,0.0,0.0,40,0.00,,,0.00,WUHU21623XXSP,2013-03-05 00:26:00,
2013-03-04 16:31:00,54.1,30.9,30.05,SSE,157,0.0,0.0,41,0.00,,,0.00,WUHU21623XXSP,2013-03-05 00:31:00,
2013-03-04 16:39:00,54.0,31.3,30.04,SE,135,0.0,0.0,42,0.00,,,0.00,WUHU21623XXSP,2013-03-05 00:39:00,
2013-03-04 16:44:00,53.4,30.8,30.04,SE,135,0.0,0.0,42,0.00,,,0.00,WUHU21623XXSP,2013-03-05 00:44:00,
2013-03-04 16:54:00,53.4,30.8,30.04,SSE,157,0.0,0.0,42,0.00,,,0.00,WUHU21623XXSP,2013-03-05 00:54:00,
2013-03-04 17:01:00,52.9,30.3,30.04,SE,135,0.0,0.0,42,0.00,,,0.00,WUHU21623XXSP,2013-03-05 01:01:00,
2013-03-04 17:10:00,52.5,30.5,30.04,SSE,157,0.0,0.0,43,0.00,,,0.00,WUHU21623XXSP,2013-03-05 01:10:00,
2013-03-04 17:16:00,52.2,30.2,30.04,SSE,157,0.0,0.0,43,0.00,,,0.00,WUHU21623XXSP,2013-03-05 01:16:00,
2013-03-04 17:23:00,51.6,30.3,30.04,SSE,157,0.0,0.0,44,0.00,,,0.00,WUHU21623XXSP,2013-03-05 01:23:00,
2013-03-04 17:29:00,51.1,30.4,30.03,SSE,157,0.0,0.0,45,0.00,,,0.00,WUHU21623XXSP,2013-03-05 01:29:00,
2013-03-04 17:34:00,50.5,29.9,30.03,SE,135,0.0,0.0,45,0.00,,,0.00,WUHU21623XXSP,2013-03-05 01:34:00,
2013-03-04 17:41:00,50.2,30.1,30.03,ESE,112,0.0,0.0,46,0.00,,,0.00,WUHU21623XXSP,2013-03-05 01:41:00,
2013-03-04 17:48:00,49.1,30.2,30.03,NE,45,0.0,0.0,48,0.00,,,0.00,WUHU21623XXSP,2013-03-05 01:48:00,
2013-03-04 17:53:00,48.4,29.5,30.04,SE,135,0.0,0.0,48,0.00,,,0.00,WUHU21623XXSP,2013-03-05 01:53:00,
2013-03-04 17:59:00,48.0,29.8,30.04,SE,135,0.0,0.0,49,0.00,,,0.00,WUHU21623XXSP,2013-03-05 01:59:00,
2013-03-04 18:06:00,47.3,29.6,30.03,SE,135,0.0,0.0,50,0.00,,,0.00,WUHU21623XXSP,2013-03-05 02:06:00,
2013-03-04 18:12:00,46.9,30.1,30.03,NE,45,0.0,0.0,52,0.00,,,0.00,WUHU21623XXSP,2013-03-05 02:12:00,
2013-03-04 18:19:00,46.2,29.9,30.03,South,180,0.0,0.0,53,0.00,,,0.00,WUHU21623XXSP,2013-03-05 02:19:00,
2013-03-04 18:24:00,45.5,30.2,30.03,East,90,0.0,0.0,55,0.00,,,0.00,WUHU21623XXSP,2013-03-05 02:24:00,
2013-03-04 18:29:00,45.1,30.3,30.03,SSE,157,0.0,0.0,56,0.00,,,0.00,WUHU21623XXSP,2013-03-05 02:29:00,
2013-03-04 18:34:00,45.0,30.6,30.03,ESE,112,0.0,0.0,57,0.00,,,0.00,WUHU21623XXSP,2013-03-05 02:34:00,
2013-03-04 18:39:00,44.4,30.6,30.02,NE,45,0.0,0.0,58,0.00,,,0.00,WUHU21623XXSP,2013-03-05 02:39:00,
2013-03-04 18:45:00,44.4,30.6,30.02,SSE,157,0.0,0.0,58,0.00,,,0.00,WUHU21623XXSP,2013-03-05 02:45:00,
2013-03-04 18:52:00,43.7,30.3,30.03,South,180,0.0,0.0,59,0.00,,,0.00,WUHU21623XXSP,2013-03-05 02:52:00,
2013-03-04 18:57:00,43.2,30.6,30.03,SE,135,0.0,0.0,61,0.00,,,0.00,WUHU21623XXSP,2013-03-05 02:57:00,
2013-03-04 19:02:00,42.6,30.5,30.02,SE,135,0.0,0.0,62,0.00,,,0.00,WUHU21623XXSP,2013-03-05 03:02:00,
2013-03-04 19:07:00,42.6,30.5,30.02,SE,135,0.0,0.0,62,0.00,,,0.00,WUHU21623XXSP,2013-03-05 03:07:00,
2013-03-04 19:12:00,42.4,30.7,30.02,ENE,67,0.0,0.0,63,0.00,,,0.00,WUHU21623XXSP,2013-03-05 03:12:00,
2013-03-04 19:17:00,42.1,30.3,30.02,NE,45,0.0,0.0,63,0.00,,,0.00,WUHU21623XXSP,2013-03-05 03:17:00,
2013-03-04 19:22:00,41.9,30.2,30.01,SSE,157,0.0,0.0,63,0.00,,,0.00,WUHU21623XXSP,2013-03-05 03:22:00,
2013-03-04 19:34:00,41.7,30.4,30.01,SSE,157,0.0,0.0,64,0.00,,,0.00,WUHU21623XXSP,2013-03-05 03:34:00,
2013-03-04 19:41:00,41.4,30.1,30.01,SE,135,0.0,0.0,64,0.00,,,0.00,WUHU21623XXSP,2013-03-05 03:41:00,
2013-03-04 19:47:00,41.0,29.7,30.01,South,180,0.0,0.0,64,0.00,,,0.00,WUHU21623XXSP,2013-03-05 03:47:00,
2013-03-04 19:53:00,40.8,29.9,30.01,ESE,112,0.0,0.0,65,0.00,,,0.00,WUHU21623XXSP,2013-03-05 03:53:00,
2013-03-04 19:58:00,40.6,29.8,30.00,SE,135,0.0,0.0,65,0.00,,,0.00,WUHU21623XXSP,2013-03-05 03:58:00,
2013-03-04 20:04:00,40.6,29.8,30.00,SSE,157,0.0,0.0,65,0.00,,,0.00,WUHU21623XXSP,2013-03-05 04:04:00,
2013-03-04 20:09:00,40.3,29.4,30.01,SSE,157,0.0,0.0,65,0.00,,,0.00,WUHU21623XXSP,2013-03-05 04:09:00,
2013-03-04 20:14:00,40.3,29.0,30.01,SE,135,0.0,0.0,64,0.00,,,0.00,WUHU21623XXSP,2013-03-05 04:14:00,
2013-03-04 20:21:00,40.3,29.0,30.00,ENE,67,0.0,0.0,64,0.00,,,0.00,WUHU21623XXSP,2013-03-05 04:21:00,
2013-03-04 20:27:00,40.6,29.4,30.00,SE,135,0.0,0.0,64,0.00,,,0.00,WUHU21623XXSP,2013-03-05 04:27:00,
2013-03-04 20:35:00,40.6,29.4,30.00,SSE,157,0.0,0.0,64,0.00,,,0.00,WUHU21623XXSP,2013-03-05 04:35:00,
2013-03-04 20:42:00,40.6,29.4,30.00,SSE,157,0.0,0.0,64,0.00,,,0.00,WUHU21623XXSP,2013-03-05 04:42:00,
2013-03-04 20:48:00,40.5,29.2,30.00,NE,45,0.0,0.0,64,0.00,,,0.00,WUHU21623XXSP,2013-03-05 04:48:00,
2013-03-04 20:53:00,40.5,28.8,29.99,ESE,112,0.0,0.0,63,0.00,,,0.00,WUHU21623XXSP,2013-03-05 04:53:00,
2013-03-04 21:00:00,40.5,28.8,29.99,SE,135,0.0,0.0,63,0.00,,,0.00,WUHU21623XXSP,2013-03-05 05:00:00,
2013-03-04 21:01:00,40.5,28.8,29.99,SE,135,0.0,0.0,63,0.00,,,0.00,WUHU21623XXSP,2013-03-05 05:01:00,
2013-03-04 21:02:00,40.5,28.8,29.99,SE,135,0.0,0.0,63,0.00,,,0.00,WUHU21623XXSP,2013-03-05 05:02:00,
2013-03-04 21:07:00,40.5,28.8,29.99,SE,135,0.0,0.0,63,0.00,,,0.00,WUHU21623XXSP,2013-03-05 05:07:00,
2013-03-04 21:14:00,40.5,28.8,29.99,SE,135,0.0,0.0,63,0.00,,,0.00,WUHU21623XXSP,2013-03-05 05:14:00,
2013-03-04 21:20:00,40.3,28.6,29.99,ENE,67,0.0,0.0,63,0.00,,,0.00,WUHU21623XXSP,2013-03-05 05:20:00,
2013-03-04 21:27:00,40.3,28.6,29.99,South,180,0.0,0.0,63,0.00,,,0.00,WUHU21623XXSP,2013-03-05 05:27:00,
2013-03-04 21:35:00,40.3,28.6,29.99,SE,135,0.0,0.0,63,0.00,,,0.00,WUHU21623XXSP,2013-03-05 05:35:00,
2013-03-04 21:40:00,40.1,28.5,29.99,SSW,202,0.0,0.0,63,0.00,,,0.00,WUHU21623XXSP,2013-03-05 05:40:00,
2013-03-04 21:48:00,39.7,28.5,29.99,SE,135,0.0,0.0,64,0.00,,,0.00,WUHU21623XXSP,2013-03-05 05:48:00,
2013-03-04 21:56:00,39.6,28.3,29.99,SSE,157,0.0,0.0,64,0.00,,,0.00,WUHU21623XXSP,2013-03-05 05:56:00,
2013-03-04 22:02:00,39.4,28.1,29.99,SSE,157,0.0,0.0,64,0.00,,,0.00,WUHU21623XXSP,2013-03-05 06:02:00,
2013-03-04 22:07:00,39.4,28.1,29.99,South,180,0.0,0.0,64,0.00,,,0.00,WUHU21623XXSP,2013-03-05 06:07:00,
2013-03-04 22:12:00,39.0,27.8,29.99,SSW,202,0.0,0.0,64,0.00,,,0.00,WUHU21623XXSP,2013-03-05 06:12:00,
2013-03-04 22:21:00,38.8,28.0,30.00,SSW,202,0.0,0.0,65,0.00,,,0.00,WUHU21623XXSP,2013-03-05 06:21:00,
2013-03-04 22:31:00,38.3,27.9,29.99,SSW,202,0.0,0.0,66,0.00,,,0.00,WUHU21623XXSP,2013-03-05 06:31:00,
2013-03-04 22:37:00,37.8,27.8,29.99,South,180,0.0,0.0,67,0.00,,,0.00,WUHU21623XXSP,2013-03-05 06:37:00,
2013-03-04 22:42:00,37.2,27.6,29.99,South,180,0.0,0.0,68,0.00,,,0.00,WUHU21623XXSP,2013-03-05 06:42:00,
2013-03-04 22:47:00,37.2,27.6,29.98,South,180,0.0,0.0,68,0.00,,,0.00,WUHU21623XXSP,2013-03-05 06:47:00,
2013-03-04 22:54:00,37.2,27.6,29.98,South,180,0.0,0.0,68,0.00,,,0.00,WUHU21623XXSP,2013-03-05 06:54:00,
2013-03-04 22:59:00,36.5,27.3,29.97,South,180,0.0,0.0,69,0.00,,,0.00,WUHU21623XXSP,2013-03-05 06:59:00,
2013-03-04 23:05:00,36.5,27.7,29.97,South,180,0.0,0.0,70,0.00,,,0.00,WUHU21623XXSP,2013-03-05 07:05:00,
2013-03-04 23:10:00,36.3,27.5,29.97,SSW,202,0.0,0.0,70,0.00,,,0.00,WUHU21623XXSP,2013-03-05 07:10:00,
2013-03-04 23:15:00,36.3,27.5,29.97,South,180,0.0,0.0,70,0.00,,,0.00,WUHU21623XXSP,2013-03-05 07:15:00,
2013-03-04 23:20:00,36.3,27.5,29.97,SSW,202,0.0,0.0,70,0.00,,,0.00,WUHU21623XXSP,2013-03-05 07:20:00,
2013-03-04 23:30:00,36.3,27.5,29.97,SSW,202,0.0,0.0,70,0.00,,,0.00,WUHU21623XXSP,2013-03-05 07:30:00,
2013-03-04 23:37:00,36.3,27.8,29.97,SSW,202,0.0,0.0,71,0.00,,,0.00,WUHU21623XXSP,2013-03-05 07:37:00,
2013-03-04 23:44:00,36.3,27.8,29.97,WSW,247,0.0,0.0,71,0.00,,,0.00,WUHU21623XXSP,2013-03-05 07:44:00,
2013-03-04 23:49:00,36.1,27.6,29.96,South,180,0.0,0.0,71,0.00,,,0.00,WUHU21623XXSP,2013-03-05 07:49:00,
2013-03-04 23:54:00,36.1,27.6,29.97,South,180,0.0,0.0,71,0.00,,,0.00,WUHU21623XXSP,2013-03-05 07:54:00,